createdAt,value
2018-09-13T00:01:25.708Z,16.80
2018-09-13T00:03:53.998Z,16.80
2018-09-13T00:06:22.383Z,16.70
2018-09-13T00:08:50.652Z,16.70
2018-09-13T00:11:18.976Z,16.70
2018-09-13T00:13:47.591Z,16.60
2018-09-13T00:16:15.893Z,16.70
2018-09-13T00:18:44.177Z,16.60
2018-09-13T00:21:12.461Z,16.70
2018-09-13T00:23:40.740Z,16.60
2018-09-13T00:26:09.013Z,16.60
2018-09-13T00:28:37.281Z,16.50
2018-09-13T00:31:05.617Z,16.50
2018-09-13T00:33:33.925Z,16.50
2018-09-13T00:36:02.180Z,16.50
2018-09-13T00:38:30.499Z,16.40
2018-09-13T00:40:58.780Z,16.40
2018-09-13T00:43:27.072Z,16.40
2018-09-13T00:45:55.361Z,16.40
2018-09-13T00:48:23.648Z,16.30
2018-09-13T00:50:51.921Z,16.30
2018-09-13T00:53:20.195Z,16.30
2018-09-13T00:55:48.456Z,16.40
2018-09-13T00:58:16.720Z,16.40
2018-09-13T01:00:45.012Z,16.30
2018-09-13T01:03:13.272Z,16.30
2018-09-13T01:05:41.584Z,16.20
2018-09-13T01:08:09.857Z,16.10
2018-09-13T01:10:38.126Z,16.00
2018-09-13T01:13:06.409Z,16.00
2018-09-13T01:15:34.682Z,16.00
2018-09-13T01:18:02.952Z,16.10
2018-09-13T01:20:31.222Z,16.00
2018-09-13T01:22:59.496Z,16.00
2018-09-13T01:25:27.773Z,16.00
2018-09-13T01:27:56.048Z,16.00
2018-09-13T01:30:24.387Z,16.00
2018-09-13T01:32:52.662Z,16.00
2018-09-13T01:35:20.941Z,16.00
2018-09-13T01:37:49.218Z,16.00
2018-09-13T01:40:17.492Z,16.00
2018-09-13T01:42:45.769Z,15.90
2018-09-13T01:45:14.040Z,15.90
2018-09-13T01:47:50.472Z,15.90
2018-09-13T01:50:18.736Z,15.90
2018-09-13T01:52:47.001Z,15.90
2018-09-13T01:55:15.288Z,15.80
2018-09-13T01:57:43.570Z,15.80
2018-09-13T02:00:11.857Z,15.70
2018-09-13T02:02:40.148Z,15.70
2018-09-13T02:05:08.452Z,15.70
2018-09-13T02:07:36.729Z,15.70
2018-09-13T02:10:05.293Z,15.70
2018-09-13T02:12:33.566Z,15.70
2018-09-13T02:15:01.840Z,15.70
2018-09-13T02:17:30.121Z,15.70
2018-09-13T02:19:58.391Z,15.60
2018-09-13T02:22:26.659Z,15.40
2018-09-13T02:24:54.943Z,15.30
2018-09-13T02:27:23.220Z,15.30
2018-09-13T02:29:51.500Z,15.30
2018-09-13T02:32:19.813Z,15.30
2018-09-13T02:34:48.110Z,15.30
2018-09-13T02:37:16.380Z,15.30
2018-09-13T02:39:44.649Z,15.40
2018-09-13T02:42:12.966Z,15.40
2018-09-13T02:44:41.234Z,15.40
2018-09-13T02:47:09.497Z,15.40
2018-09-13T02:49:37.772Z,15.50
2018-09-13T02:52:06.095Z,15.50
2018-09-13T02:54:34.367Z,15.50
2018-09-13T02:57:02.629Z,15.60
2018-09-13T02:59:30.929Z,15.60
2018-09-13T03:01:59.188Z,15.60
2018-09-13T03:04:27.462Z,15.60
2018-09-13T03:06:55.728Z,15.70
2018-09-13T03:09:23.987Z,15.70
2018-09-13T03:11:52.261Z,15.70
2018-09-13T03:14:20.525Z,15.60
2018-09-13T03:16:48.796Z,15.60
2018-09-13T03:19:17.068Z,15.70
2018-09-13T03:21:45.354Z,15.80
2018-09-13T03:24:13.616Z,15.90
2018-09-13T03:26:41.936Z,16.00
2018-09-13T03:29:10.260Z,16.20
2018-09-13T03:31:38.527Z,16.30
2018-09-13T03:34:06.917Z,16.40
2018-09-13T03:36:35.189Z,16.50
2018-09-13T03:39:03.779Z,16.60
2018-09-13T03:41:32.047Z,16.60
2018-09-13T03:44:00.316Z,16.70
2018-09-13T03:46:28.744Z,16.70
2018-09-13T03:48:57.129Z,16.70
2018-09-13T03:51:25.436Z,16.70
2018-09-13T03:53:53.713Z,16.70
2018-09-13T03:56:21.992Z,16.70
2018-09-13T03:58:50.277Z,16.70
2018-09-13T04:01:18.587Z,16.80
2018-09-13T04:03:46.873Z,16.70
2018-09-13T04:06:15.416Z,16.70
2018-09-13T04:08:43.721Z,16.70
2018-09-13T04:11:12.001Z,16.60
2018-09-13T04:13:40.336Z,16.60
2018-09-13T04:16:08.614Z,16.60
2018-09-13T04:18:37.199Z,16.50
2018-09-13T04:21:05.469Z,16.50
2018-09-13T04:23:33.748Z,16.50
2018-09-13T04:26:02.050Z,16.40
2018-09-13T04:28:30.330Z,16.40
2018-09-13T04:30:58.604Z,16.40
2018-09-13T04:33:26.880Z,16.50
2018-09-13T04:35:55.280Z,16.50
2018-09-13T04:38:23.544Z,16.40
2018-09-13T04:40:51.824Z,16.40
2018-09-13T04:43:20.141Z,16.50
2018-09-13T04:45:48.471Z,16.40
2018-09-13T04:48:17.096Z,16.40
2018-09-13T04:50:45.447Z,16.40
2018-09-13T04:53:13.720Z,16.30
2018-09-13T04:55:42.051Z,16.30
2018-09-13T04:58:10.458Z,16.30
2018-09-13T05:00:38.758Z,16.20
2018-09-13T05:03:07.044Z,16.20
2018-09-13T05:05:35.332Z,16.20
2018-09-13T05:08:03.605Z,16.20
2018-09-13T05:10:32.001Z,16.30
2018-09-13T05:13:00.265Z,16.30
2018-09-13T05:15:28.536Z,16.30
2018-09-13T05:17:56.793Z,16.30
2018-09-13T05:20:25.057Z,16.40
2018-09-13T05:22:53.340Z,16.40
2018-09-13T05:25:21.640Z,16.40
2018-09-13T05:27:49.908Z,16.40
2018-09-13T05:30:18.185Z,16.40
2018-09-13T05:32:46.564Z,16.50
2018-09-13T05:35:14.856Z,16.50
2018-09-13T05:37:43.148Z,16.50
2018-09-13T05:40:11.429Z,16.60
2018-09-13T05:42:39.704Z,16.60
2018-09-13T05:45:07.990Z,16.70
2018-09-13T05:47:36.284Z,16.70
2018-09-13T05:50:04.680Z,16.80
2018-09-13T05:52:32.960Z,16.80
2018-09-13T05:55:01.244Z,16.90
2018-09-13T05:57:29.532Z,16.90
2018-09-13T05:59:57.801Z,17.00
2018-09-13T06:02:26.083Z,17.00
2018-09-13T06:04:54.349Z,17.20
2018-09-13T06:07:22.627Z,17.30
2018-09-13T06:09:50.922Z,17.30
2018-09-13T06:12:19.196Z,17.50
2018-09-13T06:14:47.458Z,17.60
2018-09-13T06:17:15.717Z,17.70
2018-09-13T06:19:44.048Z,17.80
2018-09-13T06:22:12.264Z,17.90
2018-09-13T06:24:40.585Z,18.00
2018-09-13T06:27:08.878Z,18.10
2018-09-13T06:29:37.477Z,18.20
2018-09-13T06:32:05.694Z,18.40
2018-09-13T06:34:33.996Z,18.60
2018-09-13T06:37:02.380Z,18.70
2018-09-13T06:39:30.658Z,18.90
2018-09-13T06:41:58.946Z,19.10
2018-09-13T06:44:27.216Z,19.30
2018-09-13T06:46:55.516Z,19.40
2018-09-13T06:49:23.814Z,19.40
2018-09-13T06:51:52.212Z,19.60
2018-09-13T06:54:20.494Z,19.70
2018-09-13T06:56:48.758Z,19.90
2018-09-13T06:59:17.044Z,20.10
2018-09-13T07:01:45.324Z,20.30
2018-09-13T07:04:13.617Z,20.40
2018-09-13T07:06:42.142Z,20.50
2018-09-13T07:09:13.034Z,20.60
2018-09-13T07:11:41.653Z,20.70
2018-09-13T07:14:09.939Z,20.70
2018-09-13T07:16:38.217Z,20.80
2018-09-13T07:19:06.530Z,20.80
2018-09-13T07:21:34.902Z,20.90
2018-09-13T07:24:03.744Z,21.00
2018-09-13T07:26:32.113Z,21.00
2018-09-13T07:29:00.394Z,21.00
2018-09-13T07:31:28.879Z,21.00
2018-09-13T07:33:57.212Z,20.90
2018-09-13T07:36:25.561Z,20.90
2018-09-13T07:38:53.828Z,20.90
2018-09-13T07:41:22.141Z,20.80
2018-09-13T07:43:50.417Z,20.80
2018-09-13T07:46:18.689Z,20.80
2018-09-13T07:48:46.960Z,20.80
2018-09-13T07:51:15.264Z,20.80
2018-09-13T07:53:43.549Z,20.90
2018-09-13T07:56:11.822Z,20.90
2018-09-13T07:58:40.085Z,21.00
2018-09-13T08:01:08.356Z,21.10
2018-09-13T08:03:36.628Z,21.20
2018-09-13T08:06:04.914Z,21.20
2018-09-13T08:08:33.236Z,21.20
2018-09-13T08:11:01.620Z,21.20
2018-09-13T08:13:29.894Z,21.30
2018-09-13T08:15:58.271Z,21.40
2018-09-13T08:18:26.452Z,21.40
2018-09-13T08:20:54.736Z,21.40
2018-09-13T08:23:23.009Z,21.40
2018-09-13T08:25:51.285Z,21.50
2018-09-13T08:28:19.593Z,21.50
2018-09-13T08:30:47.884Z,21.50
2018-09-13T08:33:16.171Z,21.50
2018-09-13T08:35:44.412Z,21.50
2018-09-13T08:38:12.684Z,21.50
2018-09-13T08:40:40.986Z,21.60
2018-09-13T08:43:09.324Z,21.70
2018-09-13T08:45:37.605Z,21.70
2018-09-13T08:48:05.905Z,21.70
2018-09-13T08:50:34.197Z,21.80
2018-09-13T08:53:02.475Z,21.80
2018-09-13T08:55:30.765Z,21.80
2018-09-13T08:57:59.067Z,21.90
2018-09-13T09:00:27.354Z,22.00
2018-09-13T09:02:55.639Z,22.00
2018-09-13T09:05:23.924Z,22.00
2018-09-13T09:07:52.221Z,22.20
2018-09-13T09:10:20.501Z,22.30
2018-09-13T09:12:48.791Z,22.30
2018-09-13T09:15:17.147Z,22.40
2018-09-13T09:17:45.421Z,22.50
2018-09-13T09:20:13.713Z,22.50
2018-09-13T09:22:41.994Z,22.50
2018-09-13T09:25:10.261Z,22.60
2018-09-13T09:27:38.546Z,22.80
2018-09-13T09:30:06.921Z,22.90
2018-09-13T09:32:35.201Z,23.10
2018-09-13T09:35:03.585Z,23.20
2018-09-13T09:37:31.857Z,23.50
2018-09-13T09:40:00.129Z,23.40
2018-09-13T09:42:28.400Z,23.60
2018-09-13T09:44:56.696Z,23.80
2018-09-13T09:47:24.956Z,23.90
2018-09-13T09:49:53.253Z,24.00
2018-09-13T09:52:21.595Z,24.10
2018-09-13T09:54:49.804Z,24.20
2018-09-13T09:57:18.109Z,24.10
2018-09-13T09:59:46.376Z,24.10
2018-09-13T10:02:18.759Z,24.10
2018-09-13T10:04:47.653Z,24.20
2018-09-13T10:07:15.949Z,24.20
2018-09-13T10:09:44.297Z,24.20
2018-09-13T10:12:13.367Z,24.00
2018-09-13T10:14:41.657Z,23.90
2018-09-13T10:17:15.224Z,23.80
2018-09-13T10:19:48.989Z,23.70
2018-09-13T10:22:22.814Z,23.80
2018-09-13T10:24:56.488Z,23.80
2018-09-13T10:27:30.098Z,23.70
2018-09-13T10:30:03.797Z,23.90
2018-09-13T10:32:37.535Z,24.10
2018-09-13T10:35:11.055Z,24.10
2018-09-13T10:37:44.635Z,24.30
2018-09-13T10:41:22.051Z,24.40
2018-09-13T10:43:55.672Z,24.40
2018-09-13T10:46:24.611Z,24.40
2018-09-13T10:48:58.286Z,24.60
2018-09-13T10:51:32.000Z,24.60
2018-09-13T10:54:06.870Z,24.70
2018-09-13T10:56:35.348Z,24.70
2018-09-13T10:59:03.718Z,24.70
2018-09-13T11:01:31.966Z,24.50
2018-09-13T11:04:01.140Z,24.30
2018-09-13T11:06:29.403Z,24.30
2018-09-13T11:08:57.709Z,24.40
2018-09-13T11:11:26.054Z,24.60
2018-09-13T11:13:58.646Z,24.50
2018-09-13T11:16:26.941Z,24.50
2018-09-13T11:18:55.217Z,24.60
2018-09-13T11:21:23.776Z,24.60
2018-09-13T11:23:52.044Z,24.50
2018-09-13T11:26:20.344Z,24.50
2018-09-13T11:28:48.661Z,24.40
2018-09-13T11:31:16.945Z,24.40
2018-09-13T11:33:45.244Z,24.40
2018-09-13T11:36:13.521Z,24.50
2018-09-13T11:38:41.808Z,24.50
2018-09-13T11:41:10.068Z,24.40
2018-09-13T11:43:38.358Z,24.20
2018-09-13T11:46:06.792Z,24.10
2018-09-13T11:48:35.101Z,24.00
2018-09-13T11:51:03.385Z,23.90
2018-09-13T11:53:31.692Z,23.90
2018-09-13T11:55:59.961Z,23.70
2018-09-13T11:58:28.243Z,23.60
2018-09-13T12:00:56.557Z,23.70
2018-09-13T12:03:24.840Z,23.70
2018-09-13T12:05:53.109Z,23.70
2018-09-13T12:08:21.376Z,23.60
2018-09-13T12:10:49.651Z,23.30
2018-09-13T12:13:17.955Z,23.30
2018-09-13T12:15:46.246Z,23.30
2018-09-13T12:18:14.559Z,23.30
2018-09-13T12:20:42.790Z,23.20
2018-09-13T12:23:11.065Z,23.20
2018-09-13T12:25:39.344Z,23.40
2018-09-13T12:28:07.698Z,23.60
2018-09-13T12:30:35.972Z,24.00
2018-09-13T12:33:04.250Z,24.20
2018-09-13T12:35:32.527Z,24.10
2018-09-13T12:38:00.825Z,24.20
2018-09-13T12:40:29.108Z,24.30
2018-09-13T12:42:57.373Z,24.30
2018-09-13T12:45:25.722Z,24.50
2018-09-13T12:47:54.030Z,24.70
2018-09-13T12:50:22.369Z,24.50
2018-09-13T12:52:50.675Z,24.60
2018-09-13T12:55:18.948Z,24.70
2018-09-13T12:57:47.224Z,24.70
2018-09-13T13:00:15.517Z,24.60
2018-09-13T13:02:43.792Z,24.60
2018-09-13T13:05:12.114Z,24.70
2018-09-13T13:07:40.365Z,24.60
2018-09-13T13:10:08.661Z,24.70
2018-09-13T13:12:36.940Z,24.40
2018-09-13T13:15:05.357Z,24.30
2018-09-13T13:17:33.624Z,24.20
2018-09-13T13:20:01.904Z,24.30
2018-09-13T13:22:30.196Z,24.50
2018-09-13T13:24:58.468Z,24.60
2018-09-13T13:27:26.863Z,24.60
2018-09-13T13:29:55.024Z,24.40
2018-09-13T13:32:23.300Z,24.40
2018-09-13T13:34:51.565Z,24.40
2018-09-13T13:37:19.835Z,24.70
2018-09-13T13:39:48.100Z,24.80
2018-09-13T13:42:16.381Z,24.60
2018-09-13T13:44:44.675Z,24.50
2018-09-13T13:47:12.964Z,24.70
2018-09-13T13:49:41.268Z,24.90
2018-09-13T13:52:09.529Z,25.00
2018-09-13T13:54:37.803Z,25.30
2018-09-13T13:57:06.133Z,25.50
2018-09-13T13:59:34.405Z,25.50
2018-09-13T14:02:02.654Z,25.40
2018-09-13T14:04:30.994Z,25.00
2018-09-13T14:06:59.191Z,24.90
2018-09-13T14:09:27.469Z,25.00
2018-09-13T14:11:55.736Z,25.10
2018-09-13T14:14:24.014Z,25.10
2018-09-13T14:16:52.289Z,25.30
2018-09-13T14:19:20.565Z,25.40
2018-09-13T14:21:48.840Z,25.50
2018-09-13T14:24:17.168Z,25.50
2018-09-13T14:26:45.433Z,25.50
2018-09-13T14:29:13.715Z,25.30
2018-09-13T14:31:42.005Z,25.40
2018-09-13T14:34:10.284Z,25.40
2018-09-13T14:36:38.553Z,25.50
2018-09-13T14:39:09.326Z,25.60
2018-09-13T14:41:37.601Z,25.40
2018-09-13T14:44:06.404Z,25.30
2018-09-13T14:46:35.377Z,25.00
2018-09-13T14:49:03.760Z,24.80
2018-09-13T14:51:32.064Z,24.90
2018-09-13T14:54:00.334Z,25.00
2018-09-13T14:56:28.816Z,25.20
2018-09-13T14:58:57.112Z,25.30
2018-09-13T15:01:25.389Z,25.20
2018-09-13T15:03:53.684Z,25.20
2018-09-13T15:06:22.036Z,24.90
2018-09-13T15:08:50.300Z,24.80
2018-09-13T15:11:18.582Z,24.70
2018-09-13T15:13:46.840Z,24.50
2018-09-13T15:16:15.122Z,24.40
2018-09-13T15:18:43.438Z,24.40
2018-09-13T15:21:11.678Z,24.30
2018-09-13T15:23:39.972Z,24.30
2018-09-13T15:26:08.300Z,24.40
2018-09-13T15:28:36.565Z,24.30
2018-09-13T15:31:04.880Z,24.30
2018-09-13T15:33:33.116Z,24.10
2018-09-13T15:36:01.384Z,24.10
2018-09-13T15:38:29.711Z,23.90
2018-09-13T15:40:57.942Z,23.90
2018-09-13T15:43:26.232Z,23.80
2018-09-13T15:45:54.514Z,23.70
2018-09-13T15:48:22.788Z,23.70
2018-09-13T15:50:51.072Z,23.70
2018-09-13T15:53:19.368Z,23.50
2018-09-13T15:55:47.664Z,23.10
2018-09-13T15:58:16.026Z,22.90
2018-09-13T16:00:44.311Z,22.70
2018-09-13T16:03:12.584Z,22.30
2018-09-13T16:05:40.878Z,22.10
2018-09-13T16:08:09.143Z,21.90
2018-09-13T16:10:37.410Z,21.80
2018-09-13T16:13:05.788Z,21.70
2018-09-13T16:15:33.964Z,21.70
2018-09-13T16:18:02.245Z,21.60
2018-09-13T16:20:30.508Z,21.50
2018-09-13T16:22:58.784Z,21.40
2018-09-13T16:25:27.080Z,21.50
2018-09-13T16:27:55.428Z,21.40
2018-09-13T16:30:23.739Z,21.40
2018-09-13T16:32:52.025Z,21.40
2018-09-13T16:35:20.406Z,21.30
2018-09-13T16:37:54.321Z,21.20
2018-09-13T16:40:28.060Z,21.30
2018-09-13T16:43:01.657Z,21.20
2018-09-13T16:45:31.263Z,21.20
2018-09-13T16:48:00.980Z,21.10
2018-09-13T16:50:29.276Z,21.00
2018-09-13T16:52:57.606Z,20.90
2018-09-13T16:55:25.836Z,20.90
2018-09-13T16:57:54.144Z,20.90
2018-09-13T17:00:24.806Z,21.00
2018-09-13T17:02:53.257Z,21.10
2018-09-13T17:05:21.765Z,21.00
2018-09-13T17:07:50.064Z,20.90
2018-09-13T17:10:18.332Z,20.80
2018-09-13T17:12:46.819Z,20.80
2018-09-13T17:15:15.132Z,20.80
2018-09-13T17:17:43.413Z,20.70
2018-09-13T17:20:11.681Z,20.70
2018-09-13T17:22:39.955Z,20.60
2018-09-13T17:25:08.229Z,20.60
2018-09-13T17:27:36.525Z,20.50
2018-09-13T17:30:05.176Z,20.40
2018-09-13T17:32:33.463Z,20.40
2018-09-13T17:35:01.738Z,20.30
2018-09-13T17:37:30.017Z,20.30
2018-09-13T17:39:58.292Z,20.30
2018-09-13T17:42:26.553Z,20.20
2018-09-13T17:44:54.815Z,20.10
2018-09-13T17:47:23.104Z,20.10
2018-09-13T17:49:51.362Z,20.00
2018-09-13T17:52:19.634Z,20.00
2018-09-13T17:54:47.902Z,20.00
2018-09-13T17:57:16.168Z,20.00
2018-09-13T17:59:44.437Z,20.00
2018-09-13T18:02:12.726Z,19.90
2018-09-13T18:04:40.988Z,19.80
2018-09-13T18:07:09.601Z,19.70
2018-09-13T18:09:37.886Z,19.70
2018-09-13T18:12:06.213Z,19.60
2018-09-13T18:14:34.545Z,19.60
2018-09-13T18:17:02.816Z,19.50
2018-09-13T18:19:31.134Z,19.50
2018-09-13T18:21:59.417Z,19.50
2018-09-13T18:24:27.670Z,19.40
2018-09-13T18:26:55.948Z,19.30
2018-09-13T18:29:24.231Z,19.50
2018-09-13T18:31:52.520Z,19.50
2018-09-13T18:34:20.843Z,19.50
2018-09-13T18:36:49.428Z,19.60
2018-09-13T18:39:17.693Z,19.60
2018-09-13T18:41:45.964Z,19.60
2018-09-13T18:44:14.234Z,19.60
2018-09-13T18:46:42.520Z,19.50
2018-09-13T18:49:10.789Z,19.40
2018-09-13T18:51:39.084Z,19.40
2018-09-13T18:54:07.429Z,19.30
2018-09-13T18:56:35.701Z,19.30
2018-09-13T18:59:03.977Z,19.30
2018-09-13T19:01:32.240Z,19.30
2018-09-13T19:04:00.513Z,19.30
2018-09-13T19:06:28.781Z,19.20
2018-09-13T19:08:57.064Z,19.10
2018-09-13T19:11:25.341Z,19.10
2018-09-13T19:13:53.625Z,19.00
2018-09-13T19:16:21.890Z,19.00
2018-09-13T19:18:50.164Z,19.00
2018-09-13T19:21:18.463Z,19.00
2018-09-13T19:23:46.783Z,18.90
2018-09-13T19:26:15.072Z,18.90
2018-09-13T19:28:43.356Z,18.80
2018-09-13T19:31:11.632Z,18.70
2018-09-13T19:33:39.917Z,18.60
2018-09-13T19:36:08.192Z,18.50
2018-09-13T19:38:36.515Z,18.50
2018-09-13T19:41:04.830Z,18.50
2018-09-13T19:43:33.445Z,18.40
2018-09-13T19:46:01.779Z,18.40
2018-09-13T19:48:30.065Z,18.30
2018-09-13T19:50:58.387Z,18.40
2018-09-13T19:53:26.585Z,18.30
2018-09-13T19:55:54.969Z,18.40
2018-09-13T19:58:23.238Z,18.40
2018-09-13T20:00:51.741Z,18.40
2018-09-13T20:03:20.021Z,18.40
2018-09-13T20:05:48.313Z,18.30
2018-09-13T20:08:16.590Z,18.30
2018-09-13T20:10:44.896Z,18.20
2018-09-13T20:13:13.187Z,18.20
2018-09-13T20:15:41.456Z,18.20
2018-09-13T20:18:09.804Z,18.10
2018-09-13T20:20:38.022Z,18.00
2018-09-13T20:23:06.445Z,18.00
2018-09-13T20:25:34.655Z,18.00
2018-09-13T20:28:02.933Z,18.00
2018-09-13T20:30:31.199Z,17.90
2018-09-13T20:32:59.547Z,17.90
2018-09-13T20:35:27.822Z,17.90
2018-09-13T20:37:56.052Z,17.90
2018-09-13T20:40:24.332Z,17.90
2018-09-13T20:42:52.715Z,17.90
2018-09-13T20:45:20.905Z,17.90
2018-09-13T20:47:49.185Z,17.90
2018-09-13T20:50:17.444Z,17.90
2018-09-13T20:52:45.752Z,17.90
2018-09-13T20:55:14.165Z,17.80
2018-09-13T20:57:42.555Z,17.80
2018-09-13T21:00:14.904Z,17.90
2018-09-13T21:02:43.185Z,17.90
2018-09-13T21:05:11.480Z,17.90
2018-09-13T21:07:39.776Z,17.90
2018-09-13T21:10:08.117Z,17.90
2018-09-13T21:12:36.417Z,17.90
2018-09-13T21:15:05.494Z,17.90
2018-09-13T21:17:33.809Z,17.90
2018-09-13T21:20:02.088Z,17.90
2018-09-13T21:22:30.353Z,18.00
2018-09-13T21:24:58.684Z,18.00
2018-09-13T21:27:26.971Z,18.00
2018-09-13T21:29:55.442Z,18.00
2018-09-13T21:32:23.713Z,18.10
2018-09-13T21:34:52.027Z,18.10
2018-09-13T21:37:20.320Z,18.10
2018-09-13T21:39:48.592Z,18.10
2018-09-13T21:42:16.861Z,18.20
2018-09-13T21:44:45.255Z,18.10
2018-09-13T21:47:13.537Z,18.20
2018-09-13T21:49:41.805Z,18.20
2018-09-13T21:52:10.190Z,18.10
2018-09-13T21:54:38.457Z,18.10
2018-09-13T21:57:06.796Z,18.10
2018-09-13T21:59:35.076Z,18.10
2018-09-13T22:02:03.355Z,18.20
2018-09-13T22:04:31.647Z,18.20
2018-09-13T22:06:59.916Z,18.20
2018-09-13T22:09:28.208Z,18.20
2018-09-13T22:11:56.492Z,18.20
2018-09-13T22:14:24.797Z,18.20
2018-09-13T22:16:53.057Z,18.20
2018-09-13T22:19:21.336Z,18.20
2018-09-13T22:21:49.602Z,18.20
2018-09-13T22:24:18.016Z,18.20
2018-09-13T22:26:46.280Z,18.10
2018-09-13T22:29:14.687Z,18.20
2018-09-13T22:31:42.852Z,18.20
2018-09-13T22:34:11.117Z,18.20
2018-09-13T22:36:39.387Z,18.20
2018-09-13T22:39:09.918Z,18.20
2018-09-13T22:41:38.715Z,18.20
2018-09-13T22:44:06.996Z,18.20
2018-09-13T22:46:35.272Z,18.00
2018-09-13T22:49:03.558Z,17.90
2018-09-13T22:51:31.825Z,17.90
2018-09-13T22:54:00.121Z,17.90
2018-09-13T22:56:28.404Z,17.90
2018-09-13T22:58:56.679Z,17.80
2018-09-13T23:01:24.948Z,17.80
2018-09-13T23:03:53.209Z,17.80
2018-09-13T23:06:21.473Z,17.70
2018-09-13T23:08:49.788Z,17.70
2018-09-13T23:11:18.069Z,17.60
2018-09-13T23:13:46.365Z,17.60
2018-09-13T23:16:14.630Z,17.60
2018-09-13T23:18:42.933Z,17.60
2018-09-13T23:21:11.210Z,17.50
2018-09-13T23:23:39.493Z,17.50
2018-09-13T23:26:07.772Z,17.50
2018-09-13T23:28:36.035Z,17.50
2018-09-13T23:31:04.324Z,17.60
2018-09-13T23:33:32.616Z,17.60
2018-09-13T23:36:00.888Z,17.70
2018-09-13T23:38:29.164Z,17.70
2018-09-13T23:40:57.437Z,17.80
2018-09-13T23:43:25.709Z,17.80
2018-09-13T23:45:53.981Z,17.80
2018-09-13T23:48:22.249Z,17.80
2018-09-13T23:50:50.536Z,17.90
2018-09-13T23:53:18.792Z,17.90
2018-09-13T23:55:47.087Z,17.90
2018-09-13T23:58:15.364Z,17.90
